createdAt,value
2022-11-05T00:01:11.160Z,2.05
2022-11-05T00:03:57.275Z,2.25
2022-11-05T00:06:43.208Z,2.33
2022-11-05T00:09:29.703Z,2.30
2022-11-05T00:12:25.806Z,2.58
2022-11-05T00:15:11.915Z,2.53
2022-11-05T00:17:39.893Z,2.53
2022-11-05T00:20:13.575Z,2.67
2022-11-05T00:22:59.650Z,2.28
2022-11-05T00:25:30.361Z,2.28
2022-11-05T00:28:04.714Z,2.60
2022-11-05T00:30:32.083Z,2.75
2022-11-05T00:33:03.372Z,3.10
2022-11-05T00:35:30.648Z,3.03
2022-11-05T00:37:57.893Z,2.90
2022-11-05T00:40:25.170Z,3.30
2022-11-05T00:43:11.208Z,3.22
2022-11-05T00:45:38.807Z,3.70
2022-11-05T00:48:24.818Z,3.72
2022-11-05T00:50:57.079Z,3.28
2022-11-05T00:53:24.337Z,3.15
2022-11-05T00:55:51.582Z,3.70
2022-11-05T00:58:21.191Z,3.20
2022-11-05T01:00:50.921Z,2.65
2022-11-05T01:03:20.986Z,2.67
2022-11-05T01:05:51.132Z,2.80
2022-11-05T01:08:21.164Z,3.13
2022-11-05T01:10:53.703Z,3.75
2022-11-05T01:13:24.161Z,3.20
2022-11-05T01:15:51.614Z,3.50
2022-11-05T01:18:20.422Z,2.90
2022-11-05T01:20:48.156Z,2.72
2022-11-05T01:23:16.769Z,2.97
2022-11-05T01:25:44.961Z,2.47
2022-11-05T01:28:12.239Z,3.00
2022-11-05T01:30:39.661Z,2.90
2022-11-05T01:33:10.143Z,2.88
2022-11-05T01:35:39.414Z,2.55
2022-11-05T01:38:06.682Z,2.70
2022-11-05T01:40:34.215Z,2.97
2022-11-05T01:43:01.527Z,3.22
2022-11-05T01:45:29.455Z,3.30
2022-11-05T01:48:20.962Z,3.05
2022-11-05T01:51:02.588Z,3.50
2022-11-05T01:53:44.740Z,3.50
2022-11-05T01:56:18.529Z,3.30
2022-11-05T01:58:59.814Z,2.55
2022-11-05T02:01:27.860Z,2.90
2022-11-05T02:04:06.986Z,2.70
2022-11-05T02:06:46.067Z,2.75
2022-11-05T02:09:22.377Z,2.90
2022-11-05T02:11:53.282Z,2.63
2022-11-05T02:14:22.972Z,3.15
2022-11-05T02:17:05.355Z,2.83
2022-11-05T02:20:12.802Z,3.00
2022-11-05T02:23:17.628Z,2.80
2022-11-05T02:26:13.590Z,2.80
2022-11-05T02:28:59.519Z,2.60
2022-11-05T02:31:47.403Z,2.85
2022-11-05T02:34:36.606Z,3.00
2022-11-05T02:37:17.009Z,3.30
2022-11-05T02:39:48.794Z,3.20
2022-11-05T02:45:19.150Z,3.10
2022-11-05T02:48:23.326Z,3.33
2022-11-05T02:51:05.675Z,3.33
2022-11-05T02:53:48.682Z,3.55
2022-11-05T02:56:30.552Z,3.40
2022-11-05T03:01:25.001Z,3.53
2022-11-05T03:03:56.642Z,3.03
2022-11-05T03:06:41.893Z,3.67
2022-11-05T03:09:47.977Z,3.10
2022-11-05T03:12:30.510Z,3.30
2022-11-05T03:15:26.636Z,3.55
2022-11-05T03:18:02.323Z,3.63
2022-11-05T03:20:48.605Z,3.45
2022-11-05T03:23:36.270Z,3.30
2022-11-05T03:26:44.123Z,3.40
2022-11-05T03:29:17.515Z,3.38
2022-11-05T03:31:50.935Z,3.38
2022-11-05T03:34:22.486Z,4.00
2022-11-05T03:36:54.324Z,3.47
2022-11-05T03:39:29.752Z,3.78
2022-11-05T03:42:00.905Z,3.78
2022-11-05T03:44:36.591Z,4.13
2022-11-05T03:47:11.780Z,4.38
2022-11-05T03:49:43.643Z,4.00
2022-11-05T03:52:18.523Z,4.00
2022-11-05T03:54:46.735Z,4.15
2022-11-05T03:57:21.446Z,4.03
2022-11-05T03:59:52.846Z,4.20
2022-11-05T04:02:23.002Z,4.72
2022-11-05T04:04:53.187Z,4.60
2022-11-05T04:07:39.525Z,4.78
2022-11-05T04:10:25.614Z,4.20
2022-11-05T04:13:14.314Z,4.63
2022-11-05T04:16:01.902Z,4.32
2022-11-05T04:18:29.201Z,4.28
2022-11-05T04:21:14.899Z,5.05
2022-11-05T04:24:00.829Z,4.28
2022-11-05T04:26:28.187Z,4.35
2022-11-05T04:29:16.438Z,4.07
2022-11-05T04:31:43.892Z,4.40
2022-11-05T04:34:13.781Z,4.85
2022-11-05T04:36:41.047Z,4.03
2022-11-05T04:39:08.407Z,4.00
2022-11-05T04:41:35.657Z,4.15
2022-11-05T04:44:03.018Z,3.95
2022-11-05T04:46:30.259Z,3.97
2022-11-05T04:48:57.485Z,4.00
2022-11-05T04:51:24.815Z,3.72
2022-11-05T04:53:52.076Z,3.63
2022-11-05T04:56:24.120Z,3.55
2022-11-05T04:58:56.460Z,3.53
2022-11-05T05:01:25.454Z,4.25
2022-11-05T05:03:54.143Z,3.92
2022-11-05T05:06:22.614Z,3.65
2022-11-05T05:08:52.320Z,3.80
2022-11-05T05:11:24.062Z,3.63
2022-11-05T05:16:24.562Z,3.30
2022-11-05T05:18:52.592Z,3.20
2022-11-05T05:21:40.518Z,2.65
2022-11-05T05:24:18.656Z,2.92
2022-11-05T05:26:48.438Z,3.10
2022-11-05T05:29:16.966Z,2.72
2022-11-05T05:31:44.447Z,2.75
2022-11-05T05:34:13.510Z,2.22
2022-11-05T05:36:40.888Z,2.75
2022-11-05T05:39:11.534Z,2.80
2022-11-05T05:41:38.906Z,2.60
2022-11-05T05:44:09.205Z,3.10
2022-11-05T05:46:36.567Z,2.95
2022-11-05T05:49:07.987Z,2.90
2022-11-05T05:51:39.409Z,3.45
2022-11-05T05:54:08.866Z,3.25
2022-11-05T05:56:38.454Z,3.20
2022-11-05T05:59:06.715Z,3.88
2022-11-05T06:01:36.739Z,3.60
2022-11-05T06:04:04.160Z,3.78
2022-11-05T06:06:31.476Z,3.75
2022-11-05T06:08:58.746Z,3.80
2022-11-05T06:11:28.770Z,4.00
2022-11-05T06:13:56.014Z,5.95
2022-11-05T06:16:23.393Z,5.55
2022-11-05T06:18:50.762Z,5.47
2022-11-05T06:21:20.791Z,5.35
2022-11-05T06:23:49.133Z,6.22
2022-11-05T06:26:18.215Z,5.03
2022-11-05T06:28:48.380Z,3.88
2022-11-05T06:31:16.165Z,3.30
2022-11-05T06:33:43.412Z,2.95
2022-11-05T06:36:15.546Z,3.40
2022-11-05T06:38:42.952Z,4.50
2022-11-05T06:41:10.911Z,3.05
2022-11-05T06:43:38.877Z,3.35
2022-11-05T06:46:06.743Z,6.03
2022-11-05T06:48:36.566Z,4.30
2022-11-05T06:51:06.920Z,9.85
2022-11-05T06:53:34.678Z,5.70
2022-11-05T06:56:06.189Z,4.40
2022-11-05T06:58:34.089Z,2.60
2022-11-05T07:01:03.250Z,2.65
2022-11-05T07:03:30.649Z,2.13
2022-11-05T07:06:02.465Z,2.95
2022-11-05T07:11:00.603Z,2.40
2022-11-05T07:13:28.090Z,2.53
2022-11-05T07:15:55.557Z,2.10
2022-11-05T07:18:23.325Z,2.33
2022-11-05T07:20:50.646Z,3.10
2022-11-05T07:23:17.999Z,7.32
2022-11-05T07:25:47.778Z,4.13
2022-11-05T07:28:15.114Z,3.17
2022-11-05T07:30:42.414Z,3.90
2022-11-05T07:33:10.136Z,3.97
2022-11-05T07:35:37.730Z,3.90
2022-11-05T07:38:05.092Z,3.08
2022-11-05T07:40:32.437Z,2.38
2022-11-05T07:43:01.562Z,3.95
2022-11-05T07:45:30.845Z,2.40
2022-11-05T07:48:02.991Z,3.17
2022-11-05T07:50:33.271Z,2.88
2022-11-05T07:53:08.182Z,5.57
2022-11-05T07:55:36.492Z,9.73
2022-11-05T07:58:04.251Z,5.45
2022-11-05T08:00:31.661Z,4.05
2022-11-05T08:03:08.668Z,3.30
2022-11-05T08:05:39.308Z,3.28
2022-11-05T08:08:11.278Z,3.30
2022-11-05T08:10:41.842Z,2.90
2022-11-05T08:13:13.318Z,3.08
2022-11-05T08:18:15.863Z,3.03
2022-11-05T08:20:44.437Z,2.97
2022-11-05T08:23:14.930Z,3.47
2022-11-05T08:25:47.304Z,3.63
2022-11-05T08:28:15.449Z,3.75
2022-11-05T08:30:43.062Z,3.85
2022-11-05T08:33:14.814Z,4.45
2022-11-05T08:35:45.174Z,3.47
2022-11-05T08:38:14.096Z,3.25
2022-11-05T08:40:42.985Z,3.70
2022-11-05T08:43:12.687Z,4.28
2022-11-05T08:45:42.581Z,4.10
2022-11-05T08:48:15.488Z,3.72
2022-11-05T08:50:44.194Z,3.72
2022-11-05T08:53:12.074Z,3.78
2022-11-05T08:55:40.024Z,4.05
2022-11-05T08:58:16.910Z,3.55
2022-11-05T09:00:49.231Z,3.90
2022-11-05T09:03:20.366Z,3.50
2022-11-05T09:05:47.852Z,3.75
2022-11-05T09:08:20.353Z,3.40
2022-11-05T09:10:49.670Z,3.42
2022-11-05T09:13:19.736Z,3.90
2022-11-05T09:15:49.196Z,3.97
2022-11-05T09:18:20.176Z,4.13
2022-11-05T09:20:49.877Z,3.97
2022-11-05T09:23:17.290Z,5.75
2022-11-05T09:25:45.187Z,5.53
2022-11-05T09:28:17.459Z,5.47
2022-11-05T09:30:52.546Z,4.43
2022-11-05T09:33:23.036Z,5.07
2022-11-05T09:35:50.635Z,5.05
2022-11-05T09:38:21.606Z,4.28
2022-11-05T09:41:05.071Z,4.72
2022-11-05T09:43:43.933Z,4.68
2022-11-05T09:46:24.231Z,5.18
2022-11-05T09:48:56.473Z,4.80
2022-11-05T09:51:24.398Z,6.75
2022-11-05T09:53:54.212Z,7.80
2022-11-05T09:56:25.968Z,7.53
2022-11-05T10:01:43.324Z,7.20
2022-11-05T10:04:18.042Z,7.95
2022-11-05T10:07:00.194Z,6.55
2022-11-05T10:09:38.079Z,6.43
2022-11-05T10:12:24.243Z,6.25
2022-11-05T10:15:02.773Z,5.63
2022-11-05T10:17:39.019Z,5.40
2022-11-05T10:20:33.656Z,5.93
2022-11-05T10:23:16.689Z,8.57
2022-11-05T10:25:52.135Z,5.95
2022-11-05T10:28:22.451Z,5.70
2022-11-05T10:30:56.242Z,8.38
2022-11-05T10:33:34.773Z,5.93
2022-11-05T10:36:05.779Z,5.43
2022-11-05T10:38:35.583Z,4.90
2022-11-05T10:41:09.082Z,5.53
2022-11-05T10:43:50.646Z,6.32
2022-11-05T10:46:29.727Z,6.30
2022-11-05T10:49:06.606Z,6.40
2022-11-05T10:51:36.399Z,6.53
2022-11-05T10:54:17.296Z,7.10
2022-11-05T10:56:44.882Z,6.37
2022-11-05T10:59:27.990Z,6.75
2022-11-05T11:02:04.156Z,7.00
2022-11-05T11:04:37.513Z,7.45
2022-11-05T11:07:22.065Z,6.80
2022-11-05T11:09:50.763Z,7.22
2022-11-05T11:12:24.369Z,7.45
2022-11-05T11:15:06.744Z,7.07
2022-11-05T11:17:34.020Z,7.70
2022-11-05T11:20:24.063Z,9.82
2022-11-05T11:23:19.212Z,11.90
2022-11-05T11:25:54.732Z,27.58
2022-11-05T11:28:36.633Z,10.75
2022-11-05T11:33:34.993Z,7.95
2022-11-05T11:36:02.559Z,7.15
2022-11-05T11:38:34.539Z,6.57
2022-11-05T11:41:25.402Z,7.57
2022-11-05T11:44:12.636Z,6.80
2022-11-05T11:46:45.885Z,6.47
2022-11-05T11:49:38.151Z,6.55
2022-11-05T11:52:19.457Z,6.60
2022-11-05T11:54:46.724Z,6.47
2022-11-05T11:57:28.468Z,6.45
2022-11-05T12:03:09.963Z,6.47
2022-11-05T12:06:09.478Z,6.75
2022-11-05T12:08:52.253Z,7.05
2022-11-05T12:11:28.613Z,6.88
2022-11-05T12:14:10.089Z,6.15
2022-11-05T12:16:52.339Z,5.80
2022-11-05T12:19:36.804Z,6.25
2022-11-05T12:22:21.879Z,5.95
2022-11-05T12:25:04.055Z,6.53
2022-11-05T12:27:42.978Z,5.55
2022-11-05T12:30:17.305Z,6.63
2022-11-05T12:33:03.003Z,13.82
2022-11-05T12:35:47.375Z,7.00
2022-11-05T12:38:52.436Z,6.15
2022-11-05T12:41:28.339Z,6.20
2022-11-05T12:44:23.554Z,6.13
2022-11-05T12:47:12.514Z,6.10
2022-11-05T12:50:07.631Z,5.80
2022-11-05T12:52:40.518Z,6.03
2022-11-05T12:55:15.252Z,5.28
2022-11-05T12:57:45.540Z,6.25
2022-11-05T13:00:23.267Z,6.05
2022-11-05T13:03:27.432Z,6.80
2022-11-05T13:06:06.196Z,7.35
2022-11-05T13:08:37.601Z,7.32
2022-11-05T13:11:16.323Z,6.35
2022-11-05T13:13:59.650Z,6.75
2022-11-05T13:16:38.455Z,6.43
2022-11-05T13:19:24.623Z,6.50
2022-11-05T13:22:09.664Z,6.20
2022-11-05T13:24:45.990Z,6.68
2022-11-05T13:27:49.313Z,6.22
2022-11-05T13:30:26.023Z,6.65
2022-11-05T13:33:11.788Z,8.68
2022-11-05T13:35:44.053Z,8.35
2022-11-05T13:38:44.960Z,6.38
2022-11-05T13:41:45.037Z,6.82
2022-11-05T13:44:33.954Z,6.22
2022-11-05T13:47:12.684Z,6.07
2022-11-05T13:50:19.855Z,6.35
2022-11-05T13:53:15.083Z,6.50
2022-11-05T13:55:54.663Z,5.35
2022-11-05T13:59:04.492Z,6.50
2022-11-05T14:02:01.319Z,6.60
2022-11-05T14:04:37.911Z,7.53
2022-11-05T14:07:06.899Z,14.07
2022-11-05T14:09:36.131Z,27.42
2022-11-05T14:12:05.159Z,13.98
2022-11-05T14:14:46.031Z,8.05
2022-11-05T14:17:16.425Z,8.30
2022-11-05T14:19:51.802Z,7.32
2022-11-05T14:22:48.508Z,6.53
2022-11-05T14:25:18.817Z,6.32
2022-11-05T14:27:49.221Z,6.72
2022-11-05T14:30:41.162Z,6.50
2022-11-05T14:33:16.397Z,6.32
2022-11-05T14:35:43.868Z,7.22
2022-11-05T14:38:27.883Z,7.40
2022-11-05T14:41:03.111Z,6.38
2022-11-05T14:43:34.010Z,6.68
2022-11-05T14:46:06.133Z,6.35
2022-11-05T14:48:48.708Z,5.75
2022-11-05T14:51:40.240Z,6.07
2022-11-05T14:54:45.344Z,5.63
2022-11-05T14:57:14.962Z,6.03
2022-11-05T15:00:00.948Z,6.28
2022-11-05T15:02:35.949Z,6.00
2022-11-05T15:05:31.068Z,6.72
2022-11-05T15:08:37.780Z,7.30
2022-11-05T15:11:28.944Z,6.47
2022-11-05T15:13:56.194Z,5.68
2022-11-05T15:16:25.250Z,5.53
2022-11-05T15:18:55.582Z,6.20
2022-11-05T15:21:24.279Z,6.35
2022-11-05T15:23:56.744Z,6.40
2022-11-05T15:26:33.250Z,6.35
2022-11-05T15:29:01.563Z,6.38
2022-11-05T15:31:36.859Z,6.47
2022-11-05T15:34:18.364Z,6.95
2022-11-05T15:37:11.316Z,8.95
2022-11-05T15:39:49.963Z,26.33
2022-11-05T15:42:23.036Z,13.18
2022-11-05T15:44:58.016Z,8.77
2022-11-05T15:47:30.165Z,7.40
2022-11-05T15:49:59.967Z,6.47
2022-11-05T15:52:36.629Z,6.35
2022-11-05T15:55:25.647Z,6.32
2022-11-05T15:58:13.235Z,6.30
2022-11-05T16:00:48.967Z,6.70
2022-11-05T16:03:16.148Z,6.15
2022-11-05T16:05:46.584Z,10.10
2022-11-05T16:08:27.342Z,20.45
2022-11-05T16:11:00.258Z,19.83
2022-11-05T16:13:35.765Z,21.88
2022-11-05T16:16:06.307Z,11.45
2022-11-05T16:18:36.228Z,9.82
2022-11-05T16:21:12.611Z,9.70
2022-11-05T16:24:00.449Z,8.77
2022-11-05T16:27:00.457Z,7.95
2022-11-05T16:29:23.740Z,6.93
2022-11-05T16:31:53.804Z,7.53
2022-11-05T16:34:26.215Z,7.40
2022-11-05T16:36:58.182Z,7.45
2022-11-05T16:39:26.593Z,7.88
2022-11-05T16:41:56.375Z,11.27
2022-11-05T16:44:24.272Z,14.32
2022-11-05T16:46:52.429Z,11.73
2022-11-05T16:49:20.678Z,8.55
2022-11-05T16:51:50.478Z,9.50
2022-11-05T16:54:20.289Z,8.57
2022-11-05T16:56:47.680Z,9.65
2022-11-05T16:59:15.306Z,8.90
2022-11-05T17:01:43.136Z,10.18
2022-11-05T17:04:15.491Z,9.75
2022-11-05T17:06:44.530Z,8.93
2022-11-05T17:09:11.799Z,9.90
2022-11-05T17:11:41.683Z,10.32
2022-11-05T17:14:15.439Z,10.05
2022-11-05T17:16:43.002Z,9.98
2022-11-05T17:19:15.588Z,10.27
2022-11-05T17:21:45.148Z,10.35
2022-11-05T17:24:14.636Z,11.73
2022-11-05T17:26:44.267Z,10.63
2022-11-05T17:29:11.615Z,10.02
2022-11-05T17:31:42.308Z,9.82
2022-11-05T17:34:09.934Z,9.15
2022-11-05T17:36:39.809Z,9.95
2022-11-05T17:39:11.005Z,9.63
2022-11-05T17:41:38.301Z,9.18
2022-11-05T17:44:07.948Z,18.60
2022-11-05T17:46:35.241Z,15.98
2022-11-05T17:49:02.513Z,10.77
2022-11-05T17:51:29.753Z,10.63
2022-11-05T17:53:56.997Z,10.20
2022-11-05T17:56:33.827Z,10.55
2022-11-05T17:59:06.129Z,10.15
2022-11-05T18:01:35.810Z,12.75
2022-11-05T18:04:08.559Z,12.48
2022-11-05T18:06:40.554Z,10.57
2022-11-05T18:09:13.967Z,9.60
2022-11-05T18:11:41.821Z,9.73
2022-11-05T18:14:09.724Z,10.40
2022-11-05T18:16:37.327Z,9.70
2022-11-05T18:19:06.887Z,9.48
2022-11-05T18:21:34.180Z,8.82
2022-11-05T18:24:07.878Z,8.43
2022-11-05T18:26:35.282Z,8.48
2022-11-05T18:29:04.400Z,8.40
2022-11-05T18:31:31.719Z,7.38
2022-11-05T18:34:00.052Z,7.55
2022-11-05T18:36:29.857Z,7.60
2022-11-05T18:38:58.728Z,7.13
2022-11-05T18:41:26.888Z,6.60
2022-11-05T18:43:59.590Z,6.80
2022-11-05T18:46:55.936Z,6.95
2022-11-05T18:49:15.454Z,6.20
2022-11-05T18:51:42.996Z,6.10
2022-11-05T18:54:12.403Z,6.20
2022-11-05T18:56:45.190Z,6.82
2022-11-05T18:59:35.589Z,6.07
2022-11-05T19:02:01.571Z,6.55
2022-11-05T19:04:30.566Z,5.65
2022-11-05T19:07:03.132Z,6.55
2022-11-05T19:09:32.410Z,5.80
2022-11-05T19:11:59.702Z,5.80
2022-11-05T19:14:30.007Z,5.60
2022-11-05T19:16:58.212Z,6.07
2022-11-05T19:19:25.856Z,10.10
2022-11-05T19:21:53.590Z,12.88
2022-11-05T19:24:20.938Z,7.78
2022-11-05T19:26:48.615Z,6.43
2022-11-05T19:29:16.355Z,5.60
2022-11-05T19:31:43.720Z,5.50
2022-11-05T19:34:13.274Z,5.07
2022-11-05T19:36:42.314Z,5.70
2022-11-05T19:39:12.909Z,5.32
2022-11-05T19:41:40.399Z,5.03
2022-11-05T19:44:07.864Z,5.60
2022-11-05T19:46:35.548Z,6.07
2022-11-05T19:49:03.232Z,5.47
2022-11-05T19:51:32.064Z,5.70
2022-11-05T19:54:00.981Z,5.35
2022-11-05T19:56:33.300Z,5.53
2022-11-05T19:59:01.283Z,5.53
2022-11-05T20:01:29.405Z,5.70
2022-11-05T20:03:58.880Z,5.68
2022-11-05T20:06:34.788Z,6.35
2022-11-05T20:09:21.034Z,6.90
2022-11-05T20:11:53.842Z,6.82
2022-11-05T20:14:23.510Z,7.30
2022-11-05T20:16:51.566Z,6.57
2022-11-05T20:19:20.538Z,6.45
2022-11-05T20:21:48.551Z,5.25
2022-11-05T20:24:23.747Z,5.25
2022-11-05T20:26:55.842Z,6.25
2022-11-05T20:29:25.405Z,6.80
2022-11-05T20:31:57.063Z,6.43
2022-11-05T20:34:24.521Z,6.70
2022-11-05T20:36:51.772Z,6.50
2022-11-05T20:39:21.377Z,6.47
2022-11-05T20:41:48.629Z,6.82
2022-11-05T20:44:15.947Z,6.60
2022-11-05T20:46:43.205Z,6.10
2022-11-05T20:49:10.527Z,5.72
2022-11-05T20:51:40.138Z,5.82
2022-11-05T20:54:07.920Z,6.03
2022-11-05T20:56:35.469Z,6.28
2022-11-05T20:59:03.703Z,6.70
2022-11-05T21:01:33.026Z,7.15
2022-11-05T21:04:00.531Z,6.80
2022-11-05T21:06:31.075Z,6.57
2022-11-05T21:08:58.535Z,6.45
2022-11-05T21:11:25.835Z,6.32
2022-11-05T21:13:53.162Z,6.40
2022-11-05T21:16:20.587Z,6.00
2022-11-05T21:18:48.463Z,6.32
2022-11-05T21:21:22.437Z,5.93
2022-11-05T21:23:49.716Z,5.00
2022-11-05T21:26:17.966Z,5.07
2022-11-05T21:28:47.353Z,5.25
2022-11-05T21:31:14.736Z,5.28
2022-11-05T21:33:44.418Z,5.43
2022-11-05T21:36:18.747Z,5.20
2022-11-05T21:38:48.357Z,5.57
2022-11-05T21:41:15.622Z,6.68
2022-11-05T21:43:42.878Z,6.03
2022-11-05T21:46:13.660Z,5.78
2022-11-05T21:48:41.352Z,6.13
2022-11-05T21:51:30.477Z,6.13
2022-11-05T21:54:17.252Z,5.97
2022-11-05T21:57:08.294Z,5.53
2022-11-05T21:59:52.341Z,5.28
2022-11-05T22:02:22.309Z,5.30
2022-11-05T22:04:55.562Z,5.90
2022-11-05T22:07:29.862Z,5.15
2022-11-05T22:10:00.336Z,5.85
2022-11-05T22:12:28.185Z,5.10
2022-11-05T22:14:55.458Z,5.38
2022-11-05T22:17:22.739Z,4.97
2022-11-05T22:19:54.302Z,5.18
2022-11-05T22:22:21.861Z,5.53
2022-11-05T22:24:51.806Z,5.78
2022-11-05T22:27:23.495Z,5.53
2022-11-05T22:32:18.394Z,5.20
2022-11-05T22:34:47.467Z,6.10
2022-11-05T22:37:14.743Z,5.20
2022-11-05T22:39:44.619Z,5.20
2022-11-05T22:42:11.968Z,5.38
2022-11-05T22:44:39.382Z,4.60
2022-11-05T22:47:09.169Z,4.35
2022-11-05T22:49:36.522Z,4.38
2022-11-05T22:52:06.282Z,4.03
2022-11-05T22:54:39.195Z,3.80
2022-11-05T22:57:09.396Z,4.15
2022-11-05T22:59:36.685Z,5.00
2022-11-05T23:02:09.278Z,4.72
2022-11-05T23:04:37.677Z,4.75
2022-11-05T23:07:27.596Z,4.95
2022-11-05T23:10:13.597Z,4.65
2022-11-05T23:12:43.638Z,5.10
2022-11-05T23:15:31.015Z,4.50
2022-11-05T23:18:17.127Z,4.72
2022-11-05T23:21:02.967Z,4.47
2022-11-05T23:23:49.095Z,4.65
2022-11-05T23:26:35.136Z,4.07
2022-11-05T23:29:04.758Z,4.35
2022-11-05T23:31:50.730Z,4.32
2022-11-05T23:34:18.026Z,4.28
2022-11-05T23:37:06.521Z,4.63
2022-11-05T23:39:38.204Z,4.47
2022-11-05T23:42:27.096Z,4.18
2022-11-05T23:45:14.597Z,4.57
2022-11-05T23:48:01.669Z,4.43
2022-11-05T23:50:33.242Z,4.13
2022-11-05T23:53:04.594Z,4.07
2022-11-05T23:55:33.095Z,4.45
2022-11-05T23:58:00.569Z,4.57
